sensor_id;sensor_type;location;lat;lon;timestamp;pressure;altitude;pressure_sealevel;temperature;humidity
46382;BME280;66809;52.974;-2.514;2023-09-30T16:03:10;1012.393262068897;;;4.384916543370312;99.7066678632411
46382;BME280;66809;52.974;-2.514;2023-09-30T16:05:09;1012.376105096676;;;4.852758123438596;97.53132053402653
46382;BME280;66809;52.974;-2.514;2023-09-30T16:07:08;1012.3449914558811;;;5.311603739486288;94.89028730054893
46382;BME280;66809;52.974;-2.514;2023-09-30T16:09:10;1012.3163659717111;;;5.68723833331996;92.26225280905388
46382;BME280;66809;52.974;-2.514;2023-09-30T16:11:10;1012.2862964198343;;;5.943297711339284;89.54566147856436
46382;BME280;66809;52.974;-2.514;2023-09-30T16:13:10;1012.2556281079513;;;6.291731958682143;86.81505097127483
46382;BME280;66809;52.974;-2.514;2023-09-30T16:15:10;1012.224895377645;;;6.687939996538635;84.25738303168882
46382;BME280;66809;52.974;-2.514;2023-09-30T16:17:14;1012.197494790864;;;7.078472436798653;81.80188949798512
46382;BME280;66809;52.974;-2.514;2023-09-30T16:19:10;1012.1709928160672;;;7.444182530623728;79.64391006335705
46382;BME280;66809;52.974;-2.514;2023-09-30T16:21:09;1012.1461764648119;;;7.800369185476085;77.73146769471641
46382;BME280;66809;52.974;-2.514;2023-09-30T16:25:26;1011.8620070891047;;;11.626716448316563;52.654757461542644
46382;BME280;66809;52.974;-2.514;2023-09-30T16:27:26;1011.8844962397632;;;11.95680725184438;52.89581328617479
46382;BME280;66809;52.974;-2.514;2023-09-30T16:32:26;1011.9312006279615;;;11.634313494530973;52.3358918203028
46382;BME280;66809;52.974;-2.514;2023-09-30T16:34:26;1011.9346183745075;;;12.167445593851744;52.584214406934855
46382;BME280;66809;52.974;-2.514;2023-09-30T16:36:26;1011.9310156431408;;;12.357587746817591;52.88370649063356
46382;BME280;66809;52.974;-2.514;2023-09-30T16:38:26;1011.931288442524;;;12.542367284045765;53.11146059172911
46382;BME280;66809;52.974;-2.514;2023-09-30T16:40:26;1011.935987285679;;;12.642719001193765;53.281797086828874
46382;BME280;66809;52.974;-2.514;2023-09-30T16:42:26;1011.93500868067;;;12.742843900984546;53.488239681729944
46382;BME280;66809;52.974;-2.514;2023-09-30T16:44:26;1011.9300068747502;;;12.76020409845088;53.58253184971361
46382;BME280;66809;52.974;-2.514;2023-09-30T16:46:26;1011.9284626485578;;;12.767401835430093;53.7598173182054
46382;BME280;66809;52.974;-2.514;2023-09-30T16:48:26;1011.9317630093128;;;12.778791821259672;53.88887333103985
46382;BME280;66809;52.974;-2.514;2023-09-30T16:50:26;1011.934143760486;;;12.797233476480397;53.969260957372896
46382;BME280;66809;52.974;-2.514;2023-09-30T16:52:26;1011.9336198060868;;;12.786951225645819;54.05326981868122
46382;BME280;66809;52.974;-2.514;2023-09-30T16:54:26;1011.9279986421433;;;12.796979305417768;54.17135950848201
46382;BME280;66809;52.974;-2.514;2023-09-30T16:56:26;1011.9238220069337;;;12.808405644269781;54.277684135034086
46382;BME280;66809;52.974;-2.514;2023-09-30T16:58:26;1011.9240948938884;;;12.811933944557097;54.31527988262766
46382;BME280;66809;52.974;-2.514;2023-09-30T17:00:26;1011.9231860647291;;;12.791566625126304;54.37217177157547
46382;BME280;66809;52.974;-2.514;2023-09-30T17:02:26;1011.9234476374608;;;12.798088178118327;54.42114605028331
46382;BME280;66809;52.974;-2.514;2023-09-30T17:04:26;1011.9224814044978;;;12.801847277526218;54.44394104872637
46382;BME280;66809;52.974;-2.514;2023-09-30T17:06:26;1011.9200245123939;;;12.803346476509995;54.468437517992456
46382;BME280;66809;52.974;-2.514;2023-09-30T17:08:26;1011.9156118443861;;;12.792081538926887;54.469086212067474
46382;BME280;66809;52.974;-2.514;2023-09-30T17:10:26;1011.9082563924891;;;12.788853099833844;54.45692119616559
46382;BME280;66809;52.974;-2.514;2023-09-30T17:12:26;1011.9000272200755;;;12.774797241457417;54.449175176353364
46382;BME280;66809;52.974;-2.514;2023-09-30T17:14:27;1011.8917203780001;;;12.77149570861672;54.41619585053073
46382;BME280;66809;52.974;-2.514;2023-09-30T17:16:26;1011.8828547682476;;;12.775090387291185;54.377608372208485
46382;BME280;66809;52.974;-2.514;2023-09-30T17:18:26;1011.876352789925;;;12.774576753731072;54.361959723008155
46382;BME280;66809;52.974;-2.514;2023-09-30T17:20:26;1011.8701584558373;;;12.776451351710373;54.335089269760225
46382;BME280;66809;52.974;-2.514;2023-09-30T17:22:26;1011.8656670410769;;;12.770470937484117;54.28487119073013
46382;BME280;66809;52.974;-2.514;2023-09-30T17:24:26;1011.8608673764809;;;12.77618849427264;54.259143524812345
46382;BME280;66809;52.974;-2.514;2023-09-30T17:26:26;1011.8574523799596;;;12.76952017789039;54.21418797049713
46382;BME280;66809;52.974;-2.514;2023-09-30T17:28:26;1011.8533290563347;;;12.859043287004859;54.234858159316346
46382;BME280;66809;52.974;-2.514;2023-09-30T17:30:26;1011.8486236673014;;;12.901214891657418;54.26314245551738
46382;BME280;66809;52.974;-2.514;2023-09-30T17:32:26;1011.8411519737907;;;12.878408068805866;54.28016664525538
46382;BME280;66809;52.974;-2.514;2023-09-30T17:34:26;1011.8316893463494;;;12.860268387008144;54.25726434027123
46382;BME280;66809;52.974;-2.514;2023-09-30T17:36:25;1011.8210224917332;;;12.85050806991319;54.21381320115815
46382;BME280;66809;52.974;-2.514;2023-09-30T17:38:26;1011.8101230100687;;;12.840665255140898;54.15639476555275
46382;BME280;66809;52.974;-2.514;2023-09-30T17:40:29;1011.7971073768747;;;12.830502455354397;54.0909191840122
46382;BME280;66809;52.974;-2.514;2023-09-30T17:42:26;1011.7862858957968;;;12.815252266992378;53.99358862490314
46382;BME280;66809;52.974;-2.514;2023-09-30T17:44:26;1011.7761858660924;;;12.811744112998177;53.91773339014819
46382;BME280;66809;52.974;-2.514;2023-09-30T17:46:26;1011.7638539636496;;;12.817094905465165;53.80215505320608
46382;BME280;66809;52.974;-2.514;2023-09-30T17:48:26;1011.748359931097;;;12.8231208069888;53.678034633125314
46382;BME280;66809;52.974;-2.514;2023-09-30T17:50:26;1011.7323269893491;;;12.817230807157356;53.553808542764905
46382;BME280;66809;52.974;-2.514;2023-09-30T17:52:26;1011.7160645978963;;;12.818038164427078;53.434052577626765
46382;BME280;66809;52.974;-2.514;2023-09-30T17:54:26;1011.7023080501482;;;12.807365797711686;53.28701338671688
46382;BME280;66809;52.974;-2.514;2023-09-30T17:56:26;1011.6899785237238;;;12.796500919947183;53.14538340556909
46382;BME280;66809;52.974;-2.514;2023-09-30T17:58:26;1011.6728771040013;;;12.780251627568264;53.04015447283564
46382;BME280;66809;52.974;-2.514;2023-09-30T18:00:26;1011.6572215936264;;;12.775941266446027;52.94243758383684
46382;BME280;66809;52.974;-2.514;2023-09-30T18:02:25;1011.6414728172128;;;12.76829520507776;52.82757339480971
46382;BME280;66809;52.974;-2.514;2023-09-30T18:04:26;1011.6281553840056;;;12.752421834947;52.72208357189427
46382;BME280;66809;52.974;-2.514;2023-09-30T18:06:26;1011.6145033834449;;;12.73839771353357;52.614282522596994
46382;BME280;66809;52.974;-2.514;2023-09-30T18:08:26;1011.6020116598346;;;12.73201350045704;52.54410578828797
46382;BME280;66809;52.974;-2.514;2023-09-30T18:10:26;1011.5909807562003;;;12.71384859091882;52.4873769560819
46382;BME280;66809;52.974;-2.514;2023-09-30T18:12:26;1011.5796795475624;;;12.702347431880083;52.42439143197528
46382;BME280;66809;52.974;-2.514;2023-09-30T18:14:26;1011.5698451698188;;;12.680594776766007;52.40429764668836
46382;BME280;66809;52.974;-2.514;2023-09-30T18:16:26;1011.5631033196147;;;12.656747040652593;52.384090863219825
46382;BME280;66809;52.974;-2.514;2023-09-30T18:18:26;1011.5558975281092;;;12.637176795727528;52.35737172256829
46382;BME280;66809;52.974;-2.514;2023-09-30T18:20:26;1011.5484370017292;;;12.610592836887527;52.333369229194666
46382;BME280;66809;52.974;-2.514;2023-09-30T18:22:26;1011.5404629993434;;;12.588429231886733;52.33045563003616
46382;BME280;66809;52.974;-2.514;2023-09-30T18:24:26;1011.5309193009089;;;12.558004696239717;52.32031402311694
46382;BME280;66809;52.974;-2.514;2023-09-30T18:26:26;1011.5170669119221;;;12.548263672942287;52.317842121247985
46382;BME280;66809;52.974;-2.514;2023-09-30T18:28:26;1011.5021522430609;;;12.512697722401482;52.280242998685324
46382;BME280;66809;52.974;-2.514;2023-09-30T18:30:26;1011.4885061631969;;;12.486504342800865;52.28041951995062
46382;BME280;66809;52.974;-2.514;2023-09-30T18:32:26;1011.4751305156326;;;12.462949259138636;52.30380184877651
46382;BME280;66809;52.974;-2.514;2023-09-30T18:34:26;1011.4642017351466;;;12.43045850817641;52.33966159626424
46382;BME280;66809;52.974;-2.514;2023-09-30T18:36:26;1011.4561441424302;;;12.426651320428563;52.35824951255994
46382;BME280;66809;52.974;-2.514;2023-09-30T18:38:26;1011.4450403839112;;;12.403833432434247;52.37149473656259
46382;BME280;66809;52.974;-2.514;2023-09-30T18:40:28;1011.4344138608691;;;12.39208829639478;52.38897537854279
46382;BME280;66809;52.974;-2.514;2023-09-30T18:42:25;1011.424402397289;;;12.361192550029175;52.44149765951095
46382;BME280;66809;52.974;-2.514;2023-09-30T18:44:26;1011.4141316511918;;;12.346281960825182;52.474800087122325
46382;BME280;66809;52.974;-2.514;2023-09-30T18:46:26;1011.4052328578291;;;12.32060109416982;52.519095207822794
46382;BME280;66809;52.974;-2.514;2023-09-30T18:48:26;1011.3965939974634;;;12.296370905737493;52.57355112466696
46382;BME280;66809;52.974;-2.514;2023-09-30T18:50:26;1011.3891531484222;;;12.27108714094101;52.65286715978637
46382;BME280;66809;52.974;-2.514;2023-09-30T18:52:26;1011.3821193717723;;;12.25511930967696;52.720659971709956
46382;BME280;66809;52.974;-2.514;2023-09-30T18:54:27;1011.3744261584576;;;12.236700943840075;52.80448997957501
46382;BME280;66809;52.974;-2.514;2023-09-30T18:56:26;1011.3633683823848;;;12.223564670578513;52.870364471348694
46382;BME280;66809;52.974;-2.514;2023-09-30T18:58:26;1011.3562894294078;;;12.219224133832945;52.91698689735759
46382;BME280;66809;52.974;-2.514;2023-09-30T19:00:26;1011.348482854437;;;12.21860796418244;52.95086866650311
46382;BME280;66809;52.974;-2.514;2023-09-30T19:02:26;1011.3380625627638;;;12.207008543019601;53.00674380204665
46382;BME280;66809;52.974;-2.514;2023-09-30T19:04:26;1011.32610956672;;;12.201033904013341;53.057410729687724
46382;BME280;66809;52.974;-2.514;2023-09-30T19:06:26;1011.3176838992321;;;12.190649500498713;53.12141118495102
46382;BME280;66809;52.974;-2.514;2023-09-30T19:08:26;1011.3083568057174;;;12.182440517887626;53.16384365487171
46382;BME280;66809;52.974;-2.514;2023-09-30T19:10:26;1011.2990369061057;;;12.191619836064744;53.187965078028384
46382;BME280;66809;52.974;-2.514;2023-09-30T19:12:29;1011.2892398927263;;;12.193552348374864;53.20967181375543
46382;BME280;66809;52.974;-2.514;2023-09-30T19:14:27;1011.2768873505304;;;12.196484724451237;53.20668098553842
46382;BME280;66809;52.974;-2.514;2023-09-30T19:16:27;1011.2619673953678;;;12.20282840383772;53.22591276472862
46382;BME280;66809;52.974;-2.514;2023-09-30T19:18:26;1011.2438319206608;;;12.20231802432281;53.226769861932524
46382;BME280;66809;52.974;-2.514;2023-09-30T19:20:26;1011.2228814801085;;;12.214566313201962;53.239547323854545
46382;BME280;66809;52.974;-2.514;2023-09-30T19:22:26;1011.2003340547418;;;12.224086032889526;53.256183730050374
46382;BME280;66809;52.974;-2.514;2023-09-30T19:24:26;1011.1841624899315;;;12.233177243606498;53.26242112658065
46382;BME280;66809;52.974;-2.514;2023-09-30T19:26:26;1011.1733727968426;;;12.235845069077868;53.276651470698376
46382;BME280;66809;52.974;-2.514;2023-09-30T19:28:26;1011.1618735693576;;;12.254983176568699;53.27924330081172
46382;BME280;66809;52.974;-2.514;2023-09-30T19:30:28;1011.14754846278;;;12.260062429083355;53.26929302071882
46382;BME280;66809;52.974;-2.514;2023-09-30T19:32:26;1011.1349117416133;;;12.265351745383988;53.262490007456
46382;BME280;66809;52.974;-2.514;2023-09-30T19:34:26;1011.1212253285827;;;12.278215557739987;53.252418454288325
46382;BME280;66809;52.974;-2.514;2023-09-30T19:36:26;1011.1080524417646;;;12.266965206429301;53.23862323555485
46382;BME280;66809;52.974;-2.514;2023-09-30T19:38:26;1011.0980984413139;;;12.262417670266263;53.24182354628554
46382;BME280;66809;52.974;-2.514;2023-09-30T19:40:26;1011.0885667103859;;;12.250990101992228;53.2597987625012
46382;BME280;66809;52.974;-2.514;2023-09-30T19:42:26;1011.0738003919355;;;12.260359974757629;53.247686982744675
46382;BME280;66809;52.974;-2.514;2023-09-30T19:44:26;1011.0609989173464;;;12.265046495596383;53.24898749142259
46382;BME280;66809;52.974;-2.514;2023-09-30T19:46:26;1011.0475035879139;;;12.277937676680574;53.24811067593835
46382;BME280;66809;52.974;-2.514;2023-09-30T19:48:26;1011.0359631611193;;;12.28280064525122;53.257066640839646
46382;BME280;66809;52.974;-2.514;2023-09-30T19:50:26;1011.0242115739458;;;12.299573662447223;53.25126325026848
46382;BME280;66809;52.974;-2.514;2023-09-30T19:52:26;1011.0119438679646;;;12.310047165157952;53.24680525693462
46382;BME280;66809;52.974;-2.514;2023-09-30T19:54:26;1011.00089267954;;;12.328509034191176;53.231227540199626
46382;BME280;66809;52.974;-2.514;2023-09-30T19:56:26;1010.9907493220834;;;12.3342345144195;53.209317994231895
46382;BME280;66809;52.974;-2.514;2023-09-30T19:58:26;1010.9774685659735;;;12.341211931182865;53.19850689745294
46382;BME280;66809;52.974;-2.514;2023-09-30T20:03:40;1010.7836952127875;;;10.777177963565952;52.405702953683296
46382;BME280;66809;52.974;-2.514;2023-09-30T20:05:40;1010.7717772185125;;;11.16046449445603;52.32915758473269
46382;BME280;66809;52.974;-2.514;2023-09-30T20:07:40;1010.7561750333255;;;11.379350586592516;52.17665820341499
46382;BME280;66809;52.974;-2.514;2023-09-30T20:09:40;1010.7369409718015;;;11.548870819011386;52.155798574301926
46382;BME280;66809;52.974;-2.514;2023-09-30T20:11:40;1010.7163294411431;;;11.677454013057577;52.184958557247676
46382;BME280;66809;52.974;-2.514;2023-09-30T20:13:40;1010.6983365129136;;;11.81349850473003;52.175377991866995
46382;BME280;66809;52.974;-2.514;2023-09-30T20:15:40;1010.6792330069559;;;11.899436460199542;52.1302720981709
46382;BME280;66809;52.974;-2.514;2023-09-30T20:17:40;1010.6587911202942;;;11.953857201594138;52.10054937931615
46382;BME280;66809;52.974;-2.514;2023-09-30T20:19:40;1010.6382908367057;;;12.00512808100712;52.106591219013865
46382;BME280;66809;52.974;-2.514;2023-09-30T20:21:40;1010.6201679258285;;;12.04684453783728;52.11376542090104
46382;BME280;66809;52.974;-2.514;2023-09-30T20:23:40;1010.6132986436468;;;12.081428523951104;52.14842889057065
46382;BME280;66809;52.974;-2.514;2023-09-30T20:25:40;1010.609590032425;;;12.1047565232792;52.18002315554333
46382;BME280;66809;52.974;-2.514;2023-09-30T20:27:40;1010.6065200899791;;;12.126131515793825;52.168422718014455
46382;BME280;66809;52.974;-2.514;2023-09-30T20:29:40;1010.5996233726061;;;12.154984397196701;52.18677827039522
46382;BME280;66809;52.974;-2.514;2023-09-30T20:31:40;1010.5910890978279;;;12.175425145382528;52.19536891190278
46382;BME280;66809;52.974;-2.514;2023-09-30T20:33:40;1010.5868793474004;;;12.204094266782086;52.193498862903844
46382;BME280;66809;52.974;-2.514;2023-09-30T20:35:40;1010.5816310400922;;;12.219403010959038;52.18952935692991
46382;BME280;66809;52.974;-2.514;2023-09-30T20:37:40;1010.5720387495192;;;12.219703832786083;52.191756859014944
46382;BME280;66809;52.974;-2.514;2023-09-30T20:39:40;1010.5635800075726;;;12.23560696539381;52.19130756623562
46382;BME280;66809;52.974;-2.514;2023-09-30T20:41:40;1010.5541166864748;;;12.246668368620393;52.19987213107175
46382;BME280;66809;52.974;-2.514;2023-09-30T20:43:41;1010.5451654419135;;;12.266551707689887;52.204818854482916
46382;BME280;66809;52.974;-2.514;2023-09-30T20:45:40;1010.5376990203094;;;12.267298629537024;52.217770573847424
46382;BME280;66809;52.974;-2.514;2023-09-30T20:47:40;1010.5314309976251;;;12.267433409544983;52.233044365077674
46382;BME280;66809;52.974;-2.514;2023-09-30T20:49:40;1010.5252411071442;;;12.279585755961339;52.25606988999563
46382;BME280;66809;52.974;-2.514;2023-09-30T20:51:40;1010.5193037244107;;;12.283086183482197;52.28420659144464
46382;BME280;66809;52.974;-2.514;2023-09-30T20:53:40;1010.5132612393854;;;12.288543238941823;52.31102679751861
46382;BME280;66809;52.974;-2.514;2023-09-30T20:55:40;1010.5057900979025;;;12.283666485946224;52.3304708225556
46382;BME280;66809;52.974;-2.514;2023-09-30T20:57:40;1010.4960625302999;;;12.340648267769458;52.34752560340722
46382;BME280;66809;52.974;-2.514;2023-09-30T20:59:40;1010.4822389343295;;;12.412074661476147;52.36698024308136
46382;BME280;66809;52.974;-2.514;2023-09-30T21:01:40;1010.470145608162;;;12.487587479491923;52.37814476048458
46382;BME280;66809;52.974;-2.514;2023-09-30T21:03:40;1010.4600107767109;;;12.495876895275158;52.393253929933636
46382;BME280;66809;52.974;-2.514;2023-09-30T21:05:40;1010.4522492511619;;;12.504510798871642;52.410829334947806
46382;BME280;66809;52.974;-2.514;2023-09-30T21:07:40;1010.446385213121;;;12.526799141609548;52.45170845352019
46382;BME280;66809;52.974;-2.514;2023-09-30T21:09:40;1010.4416274004568;;;12.540123704308035;52.45518974630484
46382;BME280;66809;52.974;-2.514;2023-09-30T21:11:40;1010.4375076278874;;;12.55199467287294;52.44096998069377
46382;BME280;66809;52.974;-2.514;2023-09-30T21:13:40;1010.432571309396;;;12.547893624724255;52.451602420129824
46382;BME280;66809;52.974;-2.514;2023-09-30T21:15:40;1010.4280279011084;;;12.553909649941103;52.46220236282382
46382;BME280;66809;52.974;-2.514;2023-09-30T21:17:40;1010.4253376423585;;;12.570916581911998;52.47425502624719
46382;BME280;66809;52.974;-2.514;2023-09-30T21:19:40;1010.4242702232872;;;12.576511000956911;52.48679572008355
46382;BME280;66809;52.974;-2.514;2023-09-30T21:21:40;1010.4237034169182;;;12.581458442464536;52.49323754661018
46382;BME280;66809;52.974;-2.514;2023-09-30T21:23:40;1010.4175549613482;;;12.59377541755423;52.47270730771051
46382;BME280;66809;52.974;-2.514;2023-09-30T21:25:40;1010.4090947349814;;;12.608706245512536;52.45802096679134
46382;BME280;66809;52.974;-2.514;2023-09-30T21:27:40;1010.3987334004902;;;12.626014921310984;52.464572010554704
46382;BME280;66809;52.974;-2.514;2023-09-30T21:29:40;1010.3885501816784;;;12.638491551074653;52.45150326729384
46382;BME280;66809;52.974;-2.514;2023-09-30T21:31:40;1010.3792383135245;;;12.653506411690358;52.43376307375452
46382;BME280;66809;52.974;-2.514;2023-09-30T21:33:40;1010.3685037814688;;;12.657204855489821;52.42897242636237
46382;BME280;66809;52.974;-2.514;2023-09-30T21:35:40;1010.3591507321242;;;12.664262019850808;52.42592821054333
46382;BME280;66809;52.974;-2.514;2023-09-30T21:37:40;1010.352169940896;;;12.687294115871309;52.41668051908365
46382;BME280;66809;52.974;-2.514;2023-09-30T21:39:40;1010.3459909782906;;;12.696864290297533;52.41231217608211
46382;BME280;66809;52.974;-2.514;2023-09-30T21:41:40;1010.3425884084762;;;12.702728315159781;52.40258100383573
46382;BME280;66809;52.974;-2.514;2023-09-30T21:43:39;1010.3415471357542;;;12.69997813598626;52.39686385571381
46382;BME280;66809;52.974;-2.514;2023-09-30T21:45:40;1010.3394698048168;;;12.714622509779446;52.38599678047759
46382;BME280;66809;52.974;-2.514;2023-09-30T21:47:40;1010.334496990239;;;12.726947855993275;52.36881243116283
46382;BME280;66809;52.974;-2.514;2023-09-30T21:49:40;1010.3297406094886;;;12.734472215117789;52.34877168027075
46382;BME280;66809;52.974;-2.514;2023-09-30T21:51:40;1010.3239991368229;;;12.743915595965284;52.31682354865294
46382;BME280;66809;52.974;-2.514;2023-09-30T21:53:39;1010.3186374501981;;;12.757678492454051;52.286715962949515
46382;BME280;66809;52.974;-2.514;2023-09-30T21:55:41;1010.3149585875113;;;12.78299523814832;52.25748535672833
46382;BME280;66809;52.974;-2.514;2023-09-30T21:57:40;1010.3086860834991;;;12.797707597158217;52.235735404771944
46382;BME280;66809;52.974;-2.514;2023-09-30T21:59:40;1010.3003159284405;;;12.81490778362369;52.20312810815916
46382;BME280;66809;52.974;-2.514;2023-09-30T22:01:40;1010.2927423473403;;;12.813548057413998;52.17558378987169
46382;BME280;66809;52.974;-2.514;2023-09-30T22:03:41;1010.2838170413817;;;12.813228029779555;52.160448688019265
46382;BME280;66809;52.974;-2.514;2023-09-30T22:05:40;1010.2753999163109;;;12.813840660365807;52.14748591933337
46382;BME280;66809;52.974;-2.514;2023-09-30T22:07:40;1010.2682187341612;;;12.80700813805717;52.134004628583064
46382;BME280;66809;52.974;-2.514;2023-09-30T22:09:40;1010.261141841709;;;12.81094880938742;52.13779826681298
46382;BME280;66809;52.974;-2.514;2023-09-30T22:11:40;1010.2557101245894;;;12.811821915783781;52.151161025475695
46382;BME280;66809;52.974;-2.514;2023-09-30T22:13:40;1010.2519761330461;;;12.82366987083773;52.15332111027651
46382;BME280;66809;52.974;-2.514;2023-09-30T22:15:40;1010.249532847023;;;12.831568017530788;52.1678830849121
46382;BME280;66809;52.974;-2.514;2023-09-30T22:17:40;1010.2466688746767;;;12.823477342973103;52.18068104771951
46382;BME280;66809;52.974;-2.514;2023-09-30T22:19:40;1010.2428575629929;;;12.837191335501519;52.18258382067389
46382;BME280;66809;52.974;-2.514;2023-09-30T22:21:40;1010.2370464136162;;;12.851854785351103;52.187643931487514
46382;BME280;66809;52.974;-2.514;2023-09-30T22:23:40;1010.2301664383635;;;12.85880420618375;52.21555569555797
46382;BME280;66809;52.974;-2.514;2023-09-30T22:25:40;1010.2236523590067;;;12.855602938754844;52.23170753231928
46382;BME280;66809;52.974;-2.514;2023-09-30T22:27:40;1010.216533573952;;;12.856418695006726;52.253530250059825
46382;BME280;66809;52.974;-2.514;2023-09-30T22:29:40;1010.2128960720395;;;12.85401564136353;52.28010840144556
46382;BME280;66809;52.974;-2.514;2023-09-30T22:31:40;1010.2091312959338;;;12.848444194434656;52.31115083565192
46382;BME280;66809;52.974;-2.514;2023-09-30T22:33:40;1010.2073810855388;;;12.846542355313286;52.34403890245288
46382;BME280;66809;52.974;-2.514;2023-09-30T22:35:40;1010.2078511014404;;;12.851247634993946;52.36002515414848
46382;BME280;66809;52.974;-2.514;2023-09-30T22:37:40;1010.2057690655804;;;12.85789383734158;52.387629243462115
46382;BME280;66809;52.974;-2.514;2023-09-30T22:39:40;1010.1999127367834;;;12.864052704184873;52.41777473126603
46382;BME280;66809;52.974;-2.514;2023-09-30T22:41:40;1010.1925795887769;;;12.868909217328376;52.462426701788296
46382;BME280;66809;52.974;-2.514;2023-09-30T22:43:40;1010.1838132502666;;;12.876849365233864;52.50752418619429
46382;BME280;66809;52.974;-2.514;2023-09-30T22:45:39;1010.1754557531684;;;12.89057102238533;52.55370959774203
46382;BME280;66809;52.974;-2.514;2023-09-30T22:47:42;1010.1667124328585;;;12.891026193280698;52.590512680116795
46382;BME280;66809;52.974;-2.514;2023-09-30T22:49:40;1010.1577892128646;;;12.891069652465871;52.630747004599954
46382;BME280;66809;52.974;-2.514;2023-09-30T22:51:40;1010.1508919848133;;;12.905933287461805;52.67468898820288
46382;BME280;66809;52.974;-2.514;2023-09-30T22:53:40;1010.1434976466468;;;12.904009885308803;52.71273060546782
46382;BME280;66809;52.974;-2.514;2023-09-30T22:55:40;1010.132533373816;;;12.89543187376993;52.76372056690723
46382;BME280;66809;52.974;-2.514;2023-09-30T22:57:40;1010.1212493488383;;;12.899305323521054;52.80865678739049
46382;BME280;66809;52.974;-2.514;2023-09-30T22:59:40;1010.1099606679238;;;12.895868792644556;52.87447946664625
46382;BME280;66809;52.974;-2.514;2023-09-30T23:01:40;1010.0972796965141;;;12.897379016536783;52.94717693963231
46382;BME280;66809;52.974;-2.514;2023-09-30T23:03:40;1010.0848447389473;;;12.908261440036505;53.00764891314274
46382;BME280;66809;52.974;-2.514;2023-09-30T23:05:40;1010.0733092482152;;;12.90761520037015;53.06724150558761
46382;BME280;66809;52.974;-2.514;2023-09-30T23:07:41;1010.0603834482724;;;12.899098212620626;53.12206820520155
46382;BME280;66809;52.974;-2.514;2023-09-30T23:09:41;1010.0469944255103;;;12.883505031884976;53.176777337242434
46382;BME280;66809;52.974;-2.514;2023-09-30T23:11:40;1010.0339573012047;;;12.889909035516684;53.22727158361625
46382;BME280;66809;52.974;-2.514;2023-09-30T23:13:40;1010.021318048107;;;12.885943155156731;53.27080945463504
46382;BME280;66809;52.974;-2.514;2023-09-30T23:15:41;1010.008680966735;;;12.88061537477188;53.31333908383468
46382;BME280;66809;52.974;-2.514;2023-09-30T23:17:41;1009.996067867677;;;12.879565088359614;53.34592900489888
46382;BME280;66809;52.974;-2.514;2023-09-30T23:19:40;1009.9821249678632;;;12.87379966017082;53.38295202631386